Home   Weather   Israel   Jerusalem   Past weeks
Flag for Israel

Past Weather in Jerusalem, Israel — Yesterday and Last 2 Weeks

Currently: 84 °F. Warm. (Weather station: Khallat Ḩamāmah - MADIS Station, Israel). See more current weather

Past Weather in Jerusalem — Graph

°F

Jerusalem Temperature Yesterday

Maximum temperature yesterday: 86 °F (at 1:15 pm)
Minimum temperature yesterday: 67 °F (at 5:29 am)
Average temperature yesterday: 75 °F

High & Low Weather Summary for the Past Weeks

 TemperatureHumidityPressure
High91 °F (Aug 5, 2:19 pm)94% (Aug 10, 6:52 am)26.94 "Hg (Aug 10, 6:52 am)
Low67 °F (Aug 9, 5:29 am)41% (Aug 9, 1:15 pm)26.79 "Hg (Aug 7, 5:09 pm)
Average77 °F72%26.86 "Hg
* Reported Aug 4 6:06 pm — Aug 10 1:22 pm, Jerusalem. Weather by CustomWeather, © 2022

Note: Actual official high and low records may vary slightly from our data, if they occured in-between our weather recording intervals... More about our weather records

Jerusalem Weather History for the Previous 24 Hours

Scroll right to see more
 ConditionsComfort  
Time TempWeatherWind HumidityBarometerVisibility
1:22 pm
Wed, Aug 10
83 °FWarm.7 mph53%26.89 "HgN/A
11:42 am80 °FMild.8 mph61%26.90 "HgN/A
11:22 am80 °FMild.6 mph62%26.91 "HgN/A
10:17 am78 °FMild.6 mph71%26.91 "HgN/A
9:27 am75 °FMild.7 mph78%26.91 "HgN/A
8:17 am70 °FCool.2 mph92%26.89 "HgN/A
7:52 am70 °FCool.2 mph93%26.89 "HgN/A
7:17 am69 °FCool.3 mph94%26.89 "HgN/A
6:52 am69 °FCool.3 mph94%26.88 "HgN/A
6:22 am69 °FCool.2 mph93%26.88 "HgN/A
6:01 am69 °FCool.3 mph93%26.88 "HgN/A
5:26 am69 °FCool.3 mph93%26.87 "HgN/A
4:41 am69 °FCool.7 mph92%26.87 "HgN/A
4:01 am69 °FCool.5 mph92%26.87 "HgN/A
3:41 am69 °FCool.6 mph92%26.87 "HgN/A
2:21 am70 °FCool.2 mph89%26.88 "HgN/A
1:56 am70 °FCool.2 mph88%26.88 "HgN/A
1:06 am69 °FCool.2 mph89%26.88 "HgN/A
11:45 pm
Tue, Aug 9
71 °FCool.9 mph87%26.91 "HgN/A
10:36 pm71 °FCool.3 mph86%26.93 "HgN/A
10:25 pm71 °FCool.3 mph86%26.93 "HgN/A
10:15 pm71 °FCool.2 mph86%26.93 "HgN/A
9:45 pm72 °FMild.3 mph86%26.92 "HgN/A
9:25 pm72 °FMild.6 mph86%26.92 "HgN/A
8:15 pm73 °FMild.9 mph82%26.90 "HgN/A
7:55 pm74 °FMild.10 mph80%26.89 "HgN/A
7:05 pm76 °FMild.11 mph64%26.89 "HgN/A
6:05 pm80 °FMild.10 mph56%26.88 "HgN/A
4:45 pm82 °FWarm.10 mph48%26.89 "HgN/A
4:25 pm83 °FWarm.9 mph48%26.89 "HgN/A
3:25 pm84 °FWarm.8 mph48%26.89 "HgN/A
3:05 pm84 °FWarm.9 mph49%26.90 "HgN/A
2:35 pm85 °FWarm.7 mph51%26.90 "HgN/A
Weather by CustomWeather, © 2022

See weather overview